sensor_id;sensor_type;location;lat;lon;timestamp;P1;P2;P0
26185;PMS7003;20067;48.764;9.176;2022-11-20T00:02:19;17.75;16.00;6.25
26185;PMS7003;20067;48.764;9.176;2022-11-20T00:04:44;12.25;12.25;6.00
26185;PMS7003;20067;48.764;9.176;2022-11-20T00:07:10;13.00;13.00;8.00
26185;PMS7003;20067;48.764;9.176;2022-11-20T00:09:35;15.25;12.50;6.50
26185;PMS7003;20067;48.764;9.176;2022-11-20T00:12:01;17.25;14.25;8.00
26185;PMS7003;20067;48.764;9.176;2022-11-20T00:14:27;17.50;15.00;7.00
26185;PMS7003;20067;48.764;9.176;2022-11-20T00:16:52;13.50;11.00;5.00
26185;PMS7003;20067;48.764;9.176;2022-11-20T00:19:18;17.00;16.50;6.50
26185;PMS7003;20067;48.764;9.176;2022-11-20T00:21:43;14.00;11.00;5.00
26185;PMS7003;20067;48.764;9.176;2022-11-20T00:24:09;11.00;11.00;6.00
26185;PMS7003;20067;48.764;9.176;2022-11-20T00:26:35;17.00;15.00;6.00
26185;PMS7003;20067;48.764;9.176;2022-11-20T00:29:01;15.00;13.00;6.00
26185;PMS7003;20067;48.764;9.176;2022-11-20T00:31:27;13.00;13.00;5.50
26185;PMS7003;20067;48.764;9.176;2022-11-20T00:33:54;15.00;15.00;6.00
26185;PMS7003;20067;48.764;9.176;2022-11-20T00:36:23;13.00;13.00;6.00
26185;PMS7003;20067;48.764;9.176;2022-11-20T00:38:51;12.75;12.50;5.25
26185;PMS7003;20067;48.764;9.176;2022-11-20T00:41:18;16.75;15.00;6.00
26185;PMS7003;20067;48.764;9.176;2022-11-20T00:43:44;15.00;12.25;4.00
26185;PMS7003;20067;48.764;9.176;2022-11-20T00:46:13;14.00;13.50;5.00
26185;PMS7003;20067;48.764;9.176;2022-11-20T00:48:43;12.25;12.00;3.00
26185;PMS7003;20067;48.764;9.176;2022-11-20T00:51:09;12.25;12.25;4.50
26185;PMS7003;20067;48.764;9.176;2022-11-20T00:53:37;14.75;13.75;6.00
26185;PMS7003;20067;48.764;9.176;2022-11-20T00:56:05;13.75;13.75;6.00
26185;PMS7003;20067;48.764;9.176;2022-11-20T00:58:35;18.00;17.00;7.25
26185;PMS7003;20067;48.764;9.176;2022-11-20T01:01:09;20.50;16.00;7.50
26185;PMS7003;20067;48.764;9.176;2022-11-20T01:03:38;12.00;10.00;5.00
26185;PMS7003;20067;48.764;9.176;2022-11-20T01:06:06;10.50;10.50;5.00
26185;PMS7003;20067;48.764;9.176;2022-11-20T01:08:36;13.00;12.25;5.00
26185;PMS7003;20067;48.764;9.176;2022-11-20T01:11:04;10.00;10.00;3.00
26185;PMS7003;20067;48.764;9.176;2022-11-20T01:13:31;13.00;12.50;5.25
26185;PMS7003;20067;48.764;9.176;2022-11-20T01:16:06;14.50;13.00;5.75
26185;PMS7003;20067;48.764;9.176;2022-11-20T01:18:35;12.25;12.00;5.00
26185;PMS7003;20067;48.764;9.176;2022-11-20T01:21:03;13.75;12.50;5.00
26185;PMS7003;20067;48.764;9.176;2022-11-20T01:23:33;15.00;14.50;5.00
26185;PMS7003;20067;48.764;9.176;2022-11-20T01:26:01;13.50;12.50;5.00
26185;PMS7003;20067;48.764;9.176;2022-11-20T01:28:38;13.75;12.50;5.00
26185;PMS7003;20067;48.764;9.176;2022-11-20T01:31:15;10.00;10.00;3.00
26185;PMS7003;20067;48.764;9.176;2022-11-20T01:33:41;12.25;12.25;5.00
26185;PMS7003;20067;48.764;9.176;2022-11-20T01:36:08;10.00;10.00;3.00
26185;PMS7003;20067;48.764;9.176;2022-11-20T01:38:35;9.00;9.00;3.00
26185;PMS7003;20067;48.764;9.176;2022-11-20T01:41:01;12.50;12.50;3.00
26185;PMS7003;20067;48.764;9.176;2022-11-20T01:43:27;10.00;10.00;3.00
26185;PMS7003;20067;48.764;9.176;2022-11-20T01:45:58;10.00;10.00;3.00
26185;PMS7003;20067;48.764;9.176;2022-11-20T01:48:51;12.00;12.00;5.00
26185;PMS7003;20067;48.764;9.176;2022-11-20T01:51:26;10.50;10.50;3.00
26185;PMS7003;20067;48.764;9.176;2022-11-20T01:54:05;10.25;10.25;3.00
26185;PMS7003;20067;48.764;9.176;2022-11-20T01:56:37;13.00;12.25;4.50
26185;PMS7003;20067;48.764;9.176;2022-11-20T01:59:07;10.00;10.00;5.00
26185;PMS7003;20067;48.764;9.176;2022-11-20T02:01:35;10.00;10.00;3.00
26185;PMS7003;20067;48.764;9.176;2022-11-20T02:04:01;12.25;11.75;5.00
26185;PMS7003;20067;48.764;9.176;2022-11-20T02:07:01;13.50;13.50;4.50
26185;PMS7003;20067;48.764;9.176;2022-11-20T02:09:25;10.50;10.00;3.50
26185;PMS7003;20067;48.764;9.176;2022-11-20T02:11:52;11.50;10.50;4.00
26185;PMS7003;20067;48.764;9.176;2022-11-20T02:14:19;12.25;10.75;3.00
26185;PMS7003;20067;48.764;9.176;2022-11-20T02:16:47;10.25;9.00;3.50
26185;PMS7003;20067;48.764;9.176;2022-11-20T02:19:35;12.75;10.00;3.00
26185;PMS7003;20067;48.764;9.176;2022-11-20T02:24:41;13.00;12.25;5.00
26185;PMS7003;20067;48.764;9.176;2022-11-20T02:27:10;13.00;12.50;5.00
26185;PMS7003;20067;48.764;9.176;2022-11-20T02:29:46;13.00;13.00;5.00
26185;PMS7003;20067;48.764;9.176;2022-11-20T02:32:25;10.00;10.00;3.00
26185;PMS7003;20067;48.764;9.176;2022-11-20T02:34:56;12.75;11.00;5.00
26185;PMS7003;20067;48.764;9.176;2022-11-20T02:37:22;11.25;11.25;5.00
26185;PMS7003;20067;48.764;9.176;2022-11-20T02:39:55;14.00;14.00;5.75
26185;PMS7003;20067;48.764;9.176;2022-11-20T02:42:21;13.75;12.75;5.50
26185;PMS7003;20067;48.764;9.176;2022-11-20T02:44:46;12.25;12.25;5.00
26185;PMS7003;20067;48.764;9.176;2022-11-20T02:47:12;9.00;9.00;3.00
26185;PMS7003;20067;48.764;9.176;2022-11-20T02:49:38;10.00;10.00;3.50
26185;PMS7003;20067;48.764;9.176;2022-11-20T02:52:03;12.50;12.50;5.00
26185;PMS7003;20067;48.764;9.176;2022-11-20T02:54:29;11.00;11.00;4.00
26185;PMS7003;20067;48.764;9.176;2022-11-20T02:56:54;10.50;10.50;3.00
26185;PMS7003;20067;48.764;9.176;2022-11-20T02:59:20;13.50;13.00;5.75
26185;PMS7003;20067;48.764;9.176;2022-11-20T03:01:45;10.00;10.00;5.00
26185;PMS7003;20067;48.764;9.176;2022-11-20T03:04:11;15.50;15.00;5.00
26185;PMS7003;20067;48.764;9.176;2022-11-20T03:06:37;10.00;10.00;3.00
26185;PMS7003;20067;48.764;9.176;2022-11-20T03:09:02;14.50;12.25;5.00
26185;PMS7003;20067;48.764;9.176;2022-11-20T03:11:28;12.75;12.75;5.00
26185;PMS7003;20067;48.764;9.176;2022-11-20T03:13:54;12.50;12.50;5.25
26185;PMS7003;20067;48.764;9.176;2022-11-20T03:16:20;11.00;11.00;3.50
26185;PMS7003;20067;48.764;9.176;2022-11-20T03:18:47;13.00;13.00;5.00
26185;PMS7003;20067;48.764;9.176;2022-11-20T03:21:14;13.75;13.75;5.25
26185;PMS7003;20067;48.764;9.176;2022-11-20T03:23:41;15.50;14.75;7.50
26185;PMS7003;20067;48.764;9.176;2022-11-20T03:26:28;14.50;14.00;6.75
26185;PMS7003;20067;48.764;9.176;2022-11-20T03:28:59;17.50;16.50;7.25
26185;PMS7003;20067;48.764;9.176;2022-11-20T03:31:27;17.25;17.25;8.25
26185;PMS7003;20067;48.764;9.176;2022-11-20T03:33:55;17.00;17.00;8.00
26185;PMS7003;20067;48.764;9.176;2022-11-20T03:36:21;16.25;14.75;7.25
26185;PMS7003;20067;48.764;9.176;2022-11-20T03:38:47;20.25;18.25;9.25
26185;PMS7003;20067;48.764;9.176;2022-11-20T03:41:17;18.75;18.75;10.00
26185;PMS7003;20067;48.764;9.176;2022-11-20T03:43:52;20.50;19.50;11.50
26185;PMS7003;20067;48.764;9.176;2022-11-20T03:46:18;19.50;19.00;9.50
26185;PMS7003;20067;48.764;9.176;2022-11-20T03:48:44;17.50;16.50;7.75
26185;PMS7003;20067;48.764;9.176;2022-11-20T03:51:14;17.25;17.25;10.50
26185;PMS7003;20067;48.764;9.176;2022-11-20T03:53:43;17.00;16.25;7.75
26185;PMS7003;20067;48.764;9.176;2022-11-20T03:56:10;17.75;16.75;8.00
26185;PMS7003;20067;48.764;9.176;2022-11-20T03:58:37;18.00;16.75;7.50
26185;PMS7003;20067;48.764;9.176;2022-11-20T04:03:36;17.00;15.75;8.00
26185;PMS7003;20067;48.764;9.176;2022-11-20T04:06:04;18.50;18.50;10.50
26185;PMS7003;20067;48.764;9.176;2022-11-20T04:08:31;18.50;16.25;9.50
26185;PMS7003;20067;48.764;9.176;2022-11-20T04:11:07;20.25;18.00;8.75
26185;PMS7003;20067;48.764;9.176;2022-11-20T04:14:00;20.00;19.00;9.50
26185;PMS7003;20067;48.764;9.176;2022-11-20T04:16:31;21.75;19.25;10.00
26185;PMS7003;20067;48.764;9.176;2022-11-20T04:19:01;18.75;16.00;9.50
26185;PMS7003;20067;48.764;9.176;2022-11-20T04:21:28;21.00;20.25;12.00
26185;PMS7003;20067;48.764;9.176;2022-11-20T04:23:54;20.50;14.50;8.75
26185;PMS7003;20067;48.764;9.176;2022-11-20T04:26:21;14.00;14.00;8.00
26185;PMS7003;20067;48.764;9.176;2022-11-20T04:28:48;17.50;17.50;8.50
26185;PMS7003;20067;48.764;9.176;2022-11-20T04:31:15;19.00;17.50;10.00
26185;PMS7003;20067;48.764;9.176;2022-11-20T04:33:42;16.75;16.75;10.00
26185;PMS7003;20067;48.764;9.176;2022-11-20T04:38:38;27.50;21.00;12.00
26185;PMS7003;20067;48.764;9.176;2022-11-20T04:41:05;17.50;15.50;7.75
26185;PMS7003;20067;48.764;9.176;2022-11-20T04:43:32;19.00;16.75;7.00
26185;PMS7003;20067;48.764;9.176;2022-11-20T04:45:58;15.75;15.50;7.50
26185;PMS7003;20067;48.764;9.176;2022-11-20T04:48:25;19.00;16.50;10.00
26185;PMS7003;20067;48.764;9.176;2022-11-20T04:50:52;15.00;14.00;8.00
26185;PMS7003;20067;48.764;9.176;2022-11-20T04:53:18;14.50;13.50;7.00
26185;PMS7003;20067;48.764;9.176;2022-11-20T04:55:44;16.00;13.75;8.00
26185;PMS7003;20067;48.764;9.176;2022-11-20T04:58:10;13.00;13.00;7.00
26185;PMS7003;20067;48.764;9.176;2022-11-20T05:00:36;14.00;12.50;7.00
26185;PMS7003;20067;48.764;9.176;2022-11-20T05:03:02;15.00;15.00;8.00
26185;PMS7003;20067;48.764;9.176;2022-11-20T05:05:27;15.00;14.00;8.00
26185;PMS7003;20067;48.764;9.176;2022-11-20T05:07:55;14.25;13.75;6.25
26185;PMS7003;20067;48.764;9.176;2022-11-20T05:10:21;12.50;12.50;7.00
26185;PMS7003;20067;48.764;9.176;2022-11-20T05:12:47;15.50;14.00;7.00
26185;PMS7003;20067;48.764;9.176;2022-11-20T05:15:12;14.50;14.50;6.50
26185;PMS7003;20067;48.764;9.176;2022-11-20T05:17:38;12.50;12.50;7.00
26185;PMS7003;20067;48.764;9.176;2022-11-20T05:20:04;13.00;12.75;6.00
26185;PMS7003;20067;48.764;9.176;2022-11-20T05:22:29;12.00;12.00;6.00
26185;PMS7003;20067;48.764;9.176;2022-11-20T05:24:55;14.25;14.25;9.50
26185;PMS7003;20067;48.764;9.176;2022-11-20T05:27:21;12.00;12.00;6.00
26185;PMS7003;20067;48.764;9.176;2022-11-20T05:29:46;15.00;13.50;8.00
26185;PMS7003;20067;48.764;9.176;2022-11-20T05:32:12;15.50;12.25;6.25
26185;PMS7003;20067;48.764;9.176;2022-11-20T05:34:37;12.75;12.75;6.00
26185;PMS7003;20067;48.764;9.176;2022-11-20T05:37:03;12.75;12.75;5.50
26185;PMS7003;20067;48.764;9.176;2022-11-20T05:39:28;12.00;12.00;6.75
26185;PMS7003;20067;48.764;9.176;2022-11-20T05:41:54;16.00;16.00;9.00
26185;PMS7003;20067;48.764;9.176;2022-11-20T05:44:38;15.00;13.50;7.00
26185;PMS7003;20067;48.764;9.176;2022-11-20T05:47:04;12.00;12.00;6.75
26185;PMS7003;20067;48.764;9.176;2022-11-20T05:49:30;14.00;14.00;6.00
26185;PMS7003;20067;48.764;9.176;2022-11-20T05:51:56;14.50;13.25;7.50
26185;PMS7003;20067;48.764;9.176;2022-11-20T05:54:22;17.50;17.50;8.00
26185;PMS7003;20067;48.764;9.176;2022-11-20T05:56:47;18.50;14.00;8.00
26185;PMS7003;20067;48.764;9.176;2022-11-20T05:59:13;14.75;12.00;6.75
26185;PMS7003;20067;48.764;9.176;2022-11-20T06:01:38;14.00;14.00;6.75
26185;PMS7003;20067;48.764;9.176;2022-11-20T06:04:04;18.00;14.75;7.00
26185;PMS7003;20067;48.764;9.176;2022-11-20T06:06:29;13.00;12.00;5.50
26185;PMS7003;20067;48.764;9.176;2022-11-20T06:08:55;14.25;14.25;6.75
26185;PMS7003;20067;48.764;9.176;2022-11-20T06:11:21;15.75;15.75;8.00
26185;PMS7003;20067;48.764;9.176;2022-11-20T06:13:46;18.00;15.25;7.50
26185;PMS7003;20067;48.764;9.176;2022-11-20T06:16:14;18.50;18.50;7.00
26185;PMS7003;20067;48.764;9.176;2022-11-20T06:18:41;16.50;16.50;8.25
26185;PMS7003;20067;48.764;9.176;2022-11-20T06:21:11;19.50;18.75;8.75
26185;PMS7003;20067;48.764;9.176;2022-11-20T06:23:39;21.00;19.75;9.00
26185;PMS7003;20067;48.764;9.176;2022-11-20T06:26:09;16.00;16.00;7.00
26185;PMS7003;20067;48.764;9.176;2022-11-20T06:28:36;22.75;22.75;11.75
26185;PMS7003;20067;48.764;9.176;2022-11-20T06:31:02;19.25;19.25;9.00
26185;PMS7003;20067;48.764;9.176;2022-11-20T06:33:28;17.50;15.50;7.50
26185;PMS7003;20067;48.764;9.176;2022-11-20T06:35:56;23.50;17.75;7.75
26185;PMS7003;20067;48.764;9.176;2022-11-20T06:38:23;19.50;18.00;7.00
26185;PMS7003;20067;48.764;9.176;2022-11-20T06:40:49;14.25;14.25;6.00
26185;PMS7003;20067;48.764;9.176;2022-11-20T06:43:15;13.75;13.75;5.50
26185;PMS7003;20067;48.764;9.176;2022-11-20T06:45:40;13.50;13.25;6.50
26185;PMS7003;20067;48.764;9.176;2022-11-20T06:48:06;15.00;15.00;7.00
26185;PMS7003;20067;48.764;9.176;2022-11-20T06:50:31;13.75;12.75;4.50
26185;PMS7003;20067;48.764;9.176;2022-11-20T06:53:00;9.00;9.00;3.50
26185;PMS7003;20067;48.764;9.176;2022-11-20T06:55:27;13.50;13.50;5.50
26185;PMS7003;20067;48.764;9.176;2022-11-20T06:57:53;13.50;13.50;6.50
26185;PMS7003;20067;48.764;9.176;2022-11-20T07:00:18;13.50;13.50;5.50
26185;PMS7003;20067;48.764;9.176;2022-11-20T07:02:44;14.25;12.25;5.00
26185;PMS7003;20067;48.764;9.176;2022-11-20T07:05:09;19.50;15.00;6.75
26185;PMS7003;20067;48.764;9.176;2022-11-20T07:07:35;14.00;13.75;5.00
26185;PMS7003;20067;48.764;9.176;2022-11-20T07:10:01;15.00;15.00;5.50
26185;PMS7003;20067;48.764;9.176;2022-11-20T07:12:26;15.00;15.00;5.00
26185;PMS7003;20067;48.764;9.176;2022-11-20T07:14:52;12.00;12.00;5.00
26185;PMS7003;20067;48.764;9.176;2022-11-20T07:17:17;12.75;12.75;5.00
26185;PMS7003;20067;48.764;9.176;2022-11-20T07:19:43;12.00;12.00;5.00
26185;PMS7003;20067;48.764;9.176;2022-11-20T07:22:09;15.50;15.50;7.00
26185;PMS7003;20067;48.764;9.176;2022-11-20T07:24:34;10.50;10.50;3.00
26185;PMS7003;20067;48.764;9.176;2022-11-20T07:27:00;12.00;12.00;5.75
26185;PMS7003;20067;48.764;9.176;2022-11-20T07:29:25;13.75;12.75;5.50
26185;PMS7003;20067;48.764;9.176;2022-11-20T07:31:51;11.00;11.00;5.00
26185;PMS7003;20067;48.764;9.176;2022-11-20T07:34:17;13.50;13.50;6.50
26185;PMS7003;20067;48.764;9.176;2022-11-20T07:36:42;13.00;12.00;5.00
26185;PMS7003;20067;48.764;9.176;2022-11-20T07:39:08;14.00;13.50;5.25
26185;PMS7003;20067;48.764;9.176;2022-11-20T07:41:33;12.25;12.25;5.00
26185;PMS7003;20067;48.764;9.176;2022-11-20T07:43:59;12.25;12.25;5.50
26185;PMS7003;20067;48.764;9.176;2022-11-20T07:46:25;10.00;10.00;3.00
26185;PMS7003;20067;48.764;9.176;2022-11-20T07:48:50;10.25;10.25;2.00
26185;PMS7003;20067;48.764;9.176;2022-11-20T07:51:16;12.00;12.00;5.00
26185;PMS7003;20067;48.764;9.176;2022-11-20T07:53:41;11.25;9.50;4.00
26185;PMS7003;20067;48.764;9.176;2022-11-20T07:56:07;12.00;10.00;4.00
26185;PMS7003;20067;48.764;9.176;2022-11-20T07:58:32;10.00;10.00;3.00
26185;PMS7003;20067;48.764;9.176;2022-11-20T08:01:06;15.00;12.00;5.00
26185;PMS7003;20067;48.764;9.176;2022-11-20T08:03:32;8.50;8.50;3.00
26185;PMS7003;20067;48.764;9.176;2022-11-20T08:06:01;12.00;11.25;5.00
26185;PMS7003;20067;48.764;9.176;2022-11-20T08:08:27;10.50;10.50;5.00
26185;PMS7003;20067;48.764;9.176;2022-11-20T08:10:53;8.50;8.50;3.00
26185;PMS7003;20067;48.764;9.176;2022-11-20T08:13:39;11.75;11.75;5.00
26185;PMS7003;20067;48.764;9.176;2022-11-20T08:16:23;17.50;15.00;5.25
26185;PMS7003;20067;48.764;9.176;2022-11-20T08:18:48;12.75;12.75;5.00
26185;PMS7003;20067;48.764;9.176;2022-11-20T08:21:14;11.00;10.00;3.50
26185;PMS7003;20067;48.764;9.176;2022-11-20T08:23:40;12.75;12.75;5.00
26185;PMS7003;20067;48.764;9.176;2022-11-20T08:26:05;11.50;11.50;5.00
26185;PMS7003;20067;48.764;9.176;2022-11-20T08:28:31;14.75;14.75;6.25
26185;PMS7003;20067;48.764;9.176;2022-11-20T08:30:57;19.00;16.50;5.00
26185;PMS7003;20067;48.764;9.176;2022-11-20T08:33:24;24.00;24.00;2.00
26185;PMS7003;20067;48.764;9.176;2022-11-20T08:35:50;23.50;23.50;5.00
26185;PMS7003;20067;48.764;9.176;2022-11-20T08:38:16;15.00;12.50;1.00
26185;PMS7003;20067;48.764;9.176;2022-11-20T08:40:41;18.00;16.25;3.00
26185;PMS7003;20067;48.764;9.176;2022-11-20T08:43:27;18.00;16.50;1.00
26185;PMS7003;20067;48.764;9.176;2022-11-20T08:45:52;17.00;16.50;3.00
26185;PMS7003;20067;48.764;9.176;2022-11-20T08:48:21;15.50;15.50;3.00
26185;PMS7003;20067;48.764;9.176;2022-11-20T08:50:47;19.50;18.75;4.00
26185;PMS7003;20067;48.764;9.176;2022-11-20T08:53:13;18.00;17.00;3.00
26185;PMS7003;20067;48.764;9.176;2022-11-20T08:55:38;16.50;16.50;3.00
26185;PMS7003;20067;48.764;9.176;2022-11-20T08:58:04;17.00;17.00;3.00
26185;PMS7003;20067;48.764;9.176;2022-11-20T09:00:31;14.50;14.50;5.50
26185;PMS7003;20067;48.764;9.176;2022-11-20T09:02:57;14.25;12.75;3.00
26185;PMS7003;20067;48.764;9.176;2022-11-20T09:05:23;12.50;11.00;4.00
26185;PMS7003;20067;48.764;9.176;2022-11-20T09:07:49;11.00;10.00;1.00
26185;PMS7003;20067;48.764;9.176;2022-11-20T09:10:15;10.00;10.00;3.00
26185;PMS7003;20067;48.764;9.176;2022-11-20T09:12:40;9.00;8.00;3.00
26185;PMS7003;20067;48.764;9.176;2022-11-20T09:15:06;14.50;12.50;5.50
26185;PMS7003;20067;48.764;9.176;2022-11-20T09:17:32;10.00;10.00;3.00
26185;PMS7003;20067;48.764;9.176;2022-11-20T09:19:58;10.25;10.25;3.00
26185;PMS7003;20067;48.764;9.176;2022-11-20T09:22:23;10.00;10.00;3.00
26185;PMS7003;20067;48.764;9.176;2022-11-20T09:24:49;11.00;8.50;1.50
26185;PMS7003;20067;48.764;9.176;2022-11-20T09:27:14;10.00;10.00;1.00
26185;PMS7003;20067;48.764;9.176;2022-11-20T09:29:45;9.25;9.25;3.00
26185;PMS7003;20067;48.764;9.176;2022-11-20T09:32:10;8.00;8.00;2.50
26185;PMS7003;20067;48.764;9.176;2022-11-20T09:34:36;11.00;11.00;3.00
26185;PMS7003;20067;48.764;9.176;2022-11-20T09:37:02;8.00;8.00;2.50
26185;PMS7003;20067;48.764;9.176;2022-11-20T09:39:28;6.00;6.00;1.00
26185;PMS7003;20067;48.764;9.176;2022-11-20T09:44:40;7.50;7.50;3.00
26185;PMS7003;20067;48.764;9.176;2022-11-20T09:49:52;8.00;8.00;1.00
26185;PMS7003;20067;48.764;9.176;2022-11-20T09:52:56;6.00;6.00;1.00
26185;PMS7003;20067;48.764;9.176;2022-11-20T09:55:56;12.50;12.50;1.50
26185;PMS7003;20067;48.764;9.176;2022-11-20T09:58:27;11.50;11.50;3.00
26185;PMS7003;20067;48.764;9.176;2022-11-20T10:01:12;11.50;11.00;3.00
26185;PMS7003;20067;48.764;9.176;2022-11-20T10:06:10;9.00;9.00;1.00
26185;PMS7003;20067;48.764;9.176;2022-11-20T10:15:05;10.00;8.00;3.00
26185;PMS7003;20067;48.764;9.176;2022-11-20T10:25:24;9.00;8.00;1.00
26185;PMS7003;20067;48.764;9.176;2022-11-20T10:30:45;14.25;14.25;6.00
26185;PMS7003;20067;48.764;9.176;2022-11-20T10:33:22;12.00;12.00;5.25
26185;PMS7003;20067;48.764;9.176;2022-11-20T10:36:04;12.25;11.25;5.75
26185;PMS7003;20067;48.764;9.176;2022-11-20T10:41:30;17.00;17.00;11.50
26185;PMS7003;20067;48.764;9.176;2022-11-20T10:44:12;15.50;15.50;8.00
26185;PMS7003;20067;48.764;9.176;2022-11-20T10:47:01;22.50;21.00;11.00
26185;PMS7003;20067;48.764;9.176;2022-11-20T10:49:28;13.00;13.00;8.00
26185;PMS7003;20067;48.764;9.176;2022-11-20T10:52:02;16.00;16.00;10.00
26185;PMS7003;20067;48.764;9.176;2022-11-20T10:54:49;15.75;15.25;10.00
26185;PMS7003;20067;48.764;9.176;2022-11-20T10:57:27;13.00;13.00;6.00
26185;PMS7003;20067;48.764;9.176;2022-11-20T11:00:06;14.50;14.00;7.00
26185;PMS7003;20067;48.764;9.176;2022-11-20T11:05:17;21.50;19.50;11.25
26185;PMS7003;20067;48.764;9.176;2022-11-20T11:07:46;20.25;18.75;11.75
26185;PMS7003;20067;48.764;9.176;2022-11-20T11:10:18;20.50;17.50;10.00
26185;PMS7003;20067;48.764;9.176;2022-11-20T11:12:49;18.50;18.50;11.75
26185;PMS7003;20067;48.764;9.176;2022-11-20T11:15:25;21.50;21.50;14.50
26185;PMS7003;20067;48.764;9.176;2022-11-20T11:17:54;21.00;21.00;13.50
26185;PMS7003;20067;48.764;9.176;2022-11-20T11:20:21;21.00;21.00;14.50
26185;PMS7003;20067;48.764;9.176;2022-11-20T11:22:49;18.25;18.00;12.25
26185;PMS7003;20067;48.764;9.176;2022-11-20T11:27:52;22.00;22.00;13.00
26185;PMS7003;20067;48.764;9.176;2022-11-20T11:30:21;19.00;17.00;11.75
26185;PMS7003;20067;48.764;9.176;2022-11-20T11:32:47;19.25;19.25;13.00
26185;PMS7003;20067;48.764;9.176;2022-11-20T11:35:26;13.00;12.50;8.00
26185;PMS7003;20067;48.764;9.176;2022-11-20T11:37:54;11.50;11.50;6.00
26185;PMS7003;20067;48.764;9.176;2022-11-20T11:40:29;9.75;9.75;4.00
26185;PMS7003;20067;48.764;9.176;2022-11-20T11:42:58;12.75;9.00;3.00
26185;PMS7003;20067;48.764;9.176;2022-11-20T11:45:27;8.50;8.50;4.00
26185;PMS7003;20067;48.764;9.176;2022-11-20T11:47:54;9.00;9.00;4.00
26185;PMS7003;20067;48.764;9.176;2022-11-20T11:50:23;8.00;8.00;3.00
26185;PMS7003;20067;48.764;9.176;2022-11-20T11:55:28;9.00;9.00;3.00
26185;PMS7003;20067;48.764;9.176;2022-11-20T12:04:03;11.00;11.00;1.00
26185;PMS7003;20067;48.764;9.176;2022-11-20T12:06:57;10.00;10.00;3.00
26185;PMS7003;20067;48.764;9.176;2022-11-20T12:09:32;8.00;8.00;1.00
26185;PMS7003;20067;48.764;9.176;2022-11-20T12:12:04;11.00;11.00;3.00
26185;PMS7003;20067;48.764;9.176;2022-11-20T12:14:43;10.00;10.00;1.50
26185;PMS7003;20067;48.764;9.176;2022-11-20T12:17:12;10.00;10.00;1.00
26185;PMS7003;20067;48.764;9.176;2022-11-20T12:19:39;9.25;9.25;1.00
26185;PMS7003;20067;48.764;9.176;2022-11-20T12:25:14;12.50;11.75;1.00
26185;PMS7003;20067;48.764;9.176;2022-11-20T12:30:26;13.00;13.00;2.50
26185;PMS7003;20067;48.764;9.176;2022-11-20T12:36:00;7.50;7.50;1.00
26185;PMS7003;20067;48.764;9.176;2022-11-20T12:41:12;14.00;10.25;1.00
26185;PMS7003;20067;48.764;9.176;2022-11-20T12:49:58;11.00;11.00;1.00
26185;PMS7003;20067;48.764;9.176;2022-11-20T12:52:37;9.75;9.75;0.00
26185;PMS7003;20067;48.764;9.176;2022-11-20T12:58:23;10.25;10.25;0.75
26185;PMS7003;20067;48.764;9.176;2022-11-20T13:06:43;15.00;13.00;0.75
26185;PMS7003;20067;48.764;9.176;2022-11-20T13:09:11;9.00;9.00;1.00
26185;PMS7003;20067;48.764;9.176;2022-11-20T13:11:41;8.00;8.00;1.00
26185;PMS7003;20067;48.764;9.176;2022-11-20T13:14:37;13.50;11.00;3.00
26185;PMS7003;20067;48.764;9.176;2022-11-20T13:19:32;8.00;8.00;1.00
26185;PMS7003;20067;48.764;9.176;2022-11-20T13:21:58;9.25;9.00;1.00
26185;PMS7003;20067;48.764;9.176;2022-11-20T13:24:25;7.00;7.00;1.00
26185;PMS7003;20067;48.764;9.176;2022-11-20T13:29:40;23.00;21.25;0.00
26185;PMS7003;20067;48.764;9.176;2022-11-20T13:32:17;11.00;9.25;0.00
26185;PMS7003;20067;48.764;9.176;2022-11-20T13:34:55;10.00;10.00;0.25
26185;PMS7003;20067;48.764;9.176;2022-11-20T13:42:35;15.00;15.00;0.00
26185;PMS7003;20067;48.764;9.176;2022-11-20T13:45:09;21.50;20.75;1.00
26185;PMS7003;20067;48.764;9.176;2022-11-20T13:47:52;14.25;14.25;0.00
26185;PMS7003;20067;48.764;9.176;2022-11-20T13:50:18;14.00;12.75;0.00
26185;PMS7003;20067;48.764;9.176;2022-11-20T13:53:15;16.00;16.00;0.00
26185;PMS7003;20067;48.764;9.176;2022-11-20T14:01:19;15.00;13.25;0.00
26185;PMS7003;20067;48.764;9.176;2022-11-20T14:03:51;12.50;12.50;0.00
26185;PMS7003;20067;48.764;9.176;2022-11-20T14:07:00;11.50;11.50;1.50
26185;PMS7003;20067;48.764;9.176;2022-11-20T14:09:10;13.25;13.25;0.50
26185;PMS7003;20067;48.764;9.176;2022-11-20T14:11:45;19.00;19.00;1.00
26185;PMS7003;20067;48.764;9.176;2022-11-20T14:14:16;18.50;18.50;3.00
26185;PMS7003;20067;48.764;9.176;2022-11-20T14:16:44;11.00;11.00;0.00
26185;PMS7003;20067;48.764;9.176;2022-11-20T14:21:45;16.50;16.50;3.00
26185;PMS7003;20067;48.764;9.176;2022-11-20T14:24:12;10.75;10.75;2.50
26185;PMS7003;20067;48.764;9.176;2022-11-20T14:26:42;8.50;8.00;1.00
26185;PMS7003;20067;48.764;9.176;2022-11-20T14:29:27;6.00;6.00;1.00
26185;PMS7003;20067;48.764;9.176;2022-11-20T14:31:57;17.50;17.50;1.00
26185;PMS7003;20067;48.764;9.176;2022-11-20T14:34:27;12.00;12.00;0.00
26185;PMS7003;20067;48.764;9.176;2022-11-20T14:37:02;11.50;11.50;0.25
26185;PMS7003;20067;48.764;9.176;2022-11-20T14:39:33;12.00;12.00;1.00
26185;PMS7003;20067;48.764;9.176;2022-11-20T14:42:00;13.25;13.25;1.00
26185;PMS7003;20067;48.764;9.176;2022-11-20T14:44:29;9.00;9.00;2.00
26185;PMS7003;20067;48.764;9.176;2022-11-20T14:46:58;10.00;10.00;2.50
26185;PMS7003;20067;48.764;9.176;2022-11-20T14:49:26;8.00;8.00;1.00
26185;PMS7003;20067;48.764;9.176;2022-11-20T14:52:03;10.50;10.00;1.00
26185;PMS7003;20067;48.764;9.176;2022-11-20T14:54:44;12.50;12.50;0.75
26185;PMS7003;20067;48.764;9.176;2022-11-20T14:57:21;12.00;12.00;1.00
26185;PMS7003;20067;48.764;9.176;2022-11-20T14:59:48;10.00;10.00;1.00
26185;PMS7003;20067;48.764;9.176;2022-11-20T15:02:14;8.00;7.50;0.00
26185;PMS7003;20067;48.764;9.176;2022-11-20T15:04:50;8.50;8.00;1.50
26185;PMS7003;20067;48.764;9.176;2022-11-20T15:07:26;15.25;15.25;1.00
26185;PMS7003;20067;48.764;9.176;2022-11-20T15:12:25;11.75;11.75;1.00
26185;PMS7003;20067;48.764;9.176;2022-11-20T15:14:51;11.75;11.75;2.00
26185;PMS7003;20067;48.764;9.176;2022-11-20T15:17:17;12.50;12.50;3.50
26185;PMS7003;20067;48.764;9.176;2022-11-20T15:19:43;14.00;11.50;2.00
26185;PMS7003;20067;48.764;9.176;2022-11-20T15:22:11;13.25;12.25;2.50
26185;PMS7003;20067;48.764;9.176;2022-11-20T15:24:43;11.00;11.00;3.00
26185;PMS7003;20067;48.764;9.176;2022-11-20T15:27:09;13.75;12.00;3.00
26185;PMS7003;20067;48.764;9.176;2022-11-20T15:29:35;10.50;10.00;3.00
26185;PMS7003;20067;48.764;9.176;2022-11-20T15:32:01;8.50;8.50;1.00
26185;PMS7003;20067;48.764;9.176;2022-11-20T15:34:27;10.00;10.00;2.00
26185;PMS7003;20067;48.764;9.176;2022-11-20T15:36:53;9.50;9.50;3.00
26185;PMS7003;20067;48.764;9.176;2022-11-20T15:39:19;14.50;13.50;3.00
26185;PMS7003;20067;48.764;9.176;2022-11-20T15:41:45;12.00;12.00;3.50
26185;PMS7003;20067;48.764;9.176;2022-11-20T15:44:12;13.00;11.75;4.50
26185;PMS7003;20067;48.764;9.176;2022-11-20T15:49:10;12.00;12.00;2.50
26185;PMS7003;20067;48.764;9.176;2022-11-20T15:51:43;10.50;10.50;3.00